sensor_id;sensor_type;location;lat;lon;timestamp;P1;durP1;ratioP1;P2;durP2;ratioP2
20375;SDS011;10347;51.828;6.466;2023-03-14T00:01:51;7.78;;;2.28;;
20375;SDS011;10347;51.828;6.466;2023-03-14T00:04:17;5.70;;;2.42;;
20375;SDS011;10347;51.828;6.466;2023-03-14T00:06:43;6.32;;;2.05;;
20375;SDS011;10347;51.828;6.466;2023-03-14T00:09:08;5.20;;;2.28;;
20375;SDS011;10347;51.828;6.466;2023-03-14T00:11:34;5.20;;;1.85;;
20375;SDS011;10347;51.828;6.466;2023-03-14T00:14:00;6.05;;;2.05;;
20375;SDS011;10347;51.828;6.466;2023-03-14T00:16:25;6.80;;;2.08;;
20375;SDS011;10347;51.828;6.466;2023-03-14T00:18:51;6.93;;;2.03;;
20375;SDS011;10347;51.828;6.466;2023-03-14T00:21:17;5.45;;;2.20;;
20375;SDS011;10347;51.828;6.466;2023-03-14T00:23:43;6.82;;;2.03;;
20375;SDS011;10347;51.828;6.466;2023-03-14T00:26:13;5.22;;;2.20;;
20375;SDS011;10347;51.828;6.466;2023-03-14T00:28:40;8.68;;;2.15;;
20375;SDS011;10347;51.828;6.466;2023-03-14T00:31:07;7.20;;;2.00;;
20375;SDS011;10347;51.828;6.466;2023-03-14T00:33:34;7.38;;;2.38;;
20375;SDS011;10347;51.828;6.466;2023-03-14T00:36:01;7.43;;;2.28;;
20375;SDS011;10347;51.828;6.466;2023-03-14T00:38:29;4.15;;;2.03;;
20375;SDS011;10347;51.828;6.466;2023-03-14T00:40:56;6.05;;;2.00;;
20375;SDS011;10347;51.828;6.466;2023-03-14T00:43:22;7.03;;;2.42;;
20375;SDS011;10347;51.828;6.466;2023-03-14T00:45:51;6.63;;;2.35;;
20375;SDS011;10347;51.828;6.466;2023-03-14T00:48:18;5.95;;;2.10;;
20375;SDS011;10347;51.828;6.466;2023-03-14T00:50:44;7.95;;;2.38;;
20375;SDS011;10347;51.828;6.466;2023-03-14T00:53:10;6.70;;;2.15;;
20375;SDS011;10347;51.828;6.466;2023-03-14T00:55:37;7.18;;;2.72;;
20375;SDS011;10347;51.828;6.466;2023-03-14T00:58:03;5.18;;;2.33;;
20375;SDS011;10347;51.828;6.466;2023-03-14T01:00:29;5.68;;;2.10;;
20375;SDS011;10347;51.828;6.466;2023-03-14T01:02:55;4.32;;;1.98;;
20375;SDS011;10347;51.828;6.466;2023-03-14T01:05:21;7.97;;;2.30;;
20375;SDS011;10347;51.828;6.466;2023-03-14T01:07:47;7.00;;;2.10;;
20375;SDS011;10347;51.828;6.466;2023-03-14T01:10:13;4.97;;;1.90;;
20375;SDS011;10347;51.828;6.466;2023-03-14T01:12:39;4.10;;;1.90;;
20375;SDS011;10347;51.828;6.466;2023-03-14T01:15:04;7.55;;;2.53;;
20375;SDS011;10347;51.828;6.466;2023-03-14T01:17:30;4.43;;;1.80;;
20375;SDS011;10347;51.828;6.466;2023-03-14T01:19:56;2.80;;;1.65;;
20375;SDS011;10347;51.828;6.466;2023-03-14T01:22:21;7.22;;;2.03;;
20375;SDS011;10347;51.828;6.466;2023-03-14T01:24:47;6.05;;;2.10;;
20375;SDS011;10347;51.828;6.466;2023-03-14T01:27:13;5.78;;;1.80;;
20375;SDS011;10347;51.828;6.466;2023-03-14T01:29:38;5.50;;;1.70;;
20375;SDS011;10347;51.828;6.466;2023-03-14T01:32:04;5.30;;;2.08;;
20375;SDS011;10347;51.828;6.466;2023-03-14T01:34:29;4.85;;;1.92;;
20375;SDS011;10347;51.828;6.466;2023-03-14T01:36:55;4.20;;;1.85;;
20375;SDS011;10347;51.828;6.466;2023-03-14T01:39:20;4.55;;;1.90;;
20375;SDS011;10347;51.828;6.466;2023-03-14T01:41:46;7.70;;;2.43;;
20375;SDS011;10347;51.828;6.466;2023-03-14T01:44:12;8.18;;;2.25;;
20375;SDS011;10347;51.828;6.466;2023-03-14T01:46:41;3.70;;;1.75;;
20375;SDS011;10347;51.828;6.466;2023-03-14T01:49:21;4.70;;;1.60;;
20375;SDS011;10347;51.828;6.466;2023-03-14T01:52:00;9.82;;;1.90;;
20375;SDS011;10347;51.828;6.466;2023-03-14T01:54:45;4.28;;;1.73;;
20375;SDS011;10347;51.828;6.466;2023-03-14T01:57:18;4.43;;;1.65;;
20375;SDS011;10347;51.828;6.466;2023-03-14T01:59:54;3.42;;;1.20;;
20375;SDS011;10347;51.828;6.466;2023-03-14T02:02:28;5.15;;;1.60;;
20375;SDS011;10347;51.828;6.466;2023-03-14T02:04:55;5.90;;;1.88;;
20375;SDS011;10347;51.828;6.466;2023-03-14T02:07:33;4.80;;;1.80;;
20375;SDS011;10347;51.828;6.466;2023-03-14T02:10:05;5.40;;;1.50;;
20375;SDS011;10347;51.828;6.466;2023-03-14T02:12:31;3.28;;;1.30;;
20375;SDS011;10347;51.828;6.466;2023-03-14T02:14:58;6.40;;;1.70;;
20375;SDS011;10347;51.828;6.466;2023-03-14T02:17:24;6.90;;;2.03;;
20375;SDS011;10347;51.828;6.466;2023-03-14T02:22:37;8.43;;;2.25;;
20375;SDS011;10347;51.828;6.466;2023-03-14T02:25:09;6.53;;;1.70;;
20375;SDS011;10347;51.828;6.466;2023-03-14T02:27:49;5.88;;;1.80;;
20375;SDS011;10347;51.828;6.466;2023-03-14T02:30:17;4.93;;;1.40;;
20375;SDS011;10347;51.828;6.466;2023-03-14T02:32:45;5.72;;;1.75;;
20375;SDS011;10347;51.828;6.466;2023-03-14T02:35:14;4.15;;;1.70;;
20375;SDS011;10347;51.828;6.466;2023-03-14T02:37:46;6.78;;;1.80;;
20375;SDS011;10347;51.828;6.466;2023-03-14T02:40:15;4.60;;;1.60;;
20375;SDS011;10347;51.828;6.466;2023-03-14T02:42:41;8.20;;;1.80;;
20375;SDS011;10347;51.828;6.466;2023-03-14T02:47:32;3.28;;;1.30;;
20375;SDS011;10347;51.828;6.466;2023-03-14T02:50:02;4.80;;;1.60;;
20375;SDS011;10347;51.828;6.466;2023-03-14T02:52:32;6.63;;;1.95;;
20375;SDS011;10347;51.828;6.466;2023-03-14T02:54:58;5.22;;;1.95;;
20375;SDS011;10347;51.828;6.466;2023-03-14T02:57:24;4.57;;;1.63;;
20375;SDS011;10347;51.828;6.466;2023-03-14T02:59:49;5.70;;;1.67;;
20375;SDS011;10347;51.828;6.466;2023-03-14T03:02:15;5.95;;;1.50;;
20375;SDS011;10347;51.828;6.466;2023-03-14T03:04:41;6.22;;;2.13;;
20375;SDS011;10347;51.828;6.466;2023-03-14T03:07:07;4.70;;;1.60;;
20375;SDS011;10347;51.828;6.466;2023-03-14T03:09:32;2.88;;;1.48;;
20375;SDS011;10347;51.828;6.466;2023-03-14T03:11:58;5.88;;;2.00;;
20375;SDS011;10347;51.828;6.466;2023-03-14T03:14:24;3.38;;;1.60;;
20375;SDS011;10347;51.828;6.466;2023-03-14T03:16:49;5.13;;;1.70;;
20375;SDS011;10347;51.828;6.466;2023-03-14T03:19:15;7.68;;;1.80;;
20375;SDS011;10347;51.828;6.466;2023-03-14T03:21:42;5.50;;;1.45;;
20375;SDS011;10347;51.828;6.466;2023-03-14T03:24:08;7.28;;;2.15;;
20375;SDS011;10347;51.828;6.466;2023-03-14T03:26:34;10.02;;;2.13;;
20375;SDS011;10347;51.828;6.466;2023-03-14T03:29:00;7.90;;;1.95;;
20375;SDS011;10347;51.828;6.466;2023-03-14T03:31:26;5.25;;;1.80;;
20375;SDS011;10347;51.828;6.466;2023-03-14T03:33:51;6.55;;;1.98;;
20375;SDS011;10347;51.828;6.466;2023-03-14T03:36:20;7.13;;;1.90;;
20375;SDS011;10347;51.828;6.466;2023-03-14T03:38:47;5.78;;;2.20;;
20375;SDS011;10347;51.828;6.466;2023-03-14T03:41:13;4.93;;;1.75;;
20375;SDS011;10347;51.828;6.466;2023-03-14T03:43:39;5.85;;;1.83;;
20375;SDS011;10347;51.828;6.466;2023-03-14T03:46:05;8.07;;;1.92;;
20375;SDS011;10347;51.828;6.466;2023-03-14T03:48:31;6.80;;;1.55;;
20375;SDS011;10347;51.828;6.466;2023-03-14T03:50:57;6.47;;;2.40;;
20375;SDS011;10347;51.828;6.466;2023-03-14T03:53:23;7.50;;;2.40;;
20375;SDS011;10347;51.828;6.466;2023-03-14T03:55:48;8.15;;;2.17;;
20375;SDS011;10347;51.828;6.466;2023-03-14T03:58:14;10.50;;;2.10;;
20375;SDS011;10347;51.828;6.466;2023-03-14T04:00:39;5.53;;;2.08;;
20375;SDS011;10347;51.828;6.466;2023-03-14T04:03:05;5.82;;;1.73;;
20375;SDS011;10347;51.828;6.466;2023-03-14T04:05:31;6.22;;;1.90;;
20375;SDS011;10347;51.828;6.466;2023-03-14T04:07:56;10.63;;;2.10;;
20375;SDS011;10347;51.828;6.466;2023-03-14T04:10:22;8.75;;;2.63;;
20375;SDS011;10347;51.828;6.466;2023-03-14T04:12:47;5.53;;;1.92;;
20375;SDS011;10347;51.828;6.466;2023-03-14T04:15:13;10.07;;;2.70;;
20375;SDS011;10347;51.828;6.466;2023-03-14T04:17:38;7.65;;;1.90;;
20375;SDS011;10347;51.828;6.466;2023-03-14T04:20:04;9.52;;;2.35;;
20375;SDS011;10347;51.828;6.466;2023-03-14T04:22:30;7.13;;;2.00;;
20375;SDS011;10347;51.828;6.466;2023-03-14T04:24:56;11.45;;;2.22;;
20375;SDS011;10347;51.828;6.466;2023-03-14T04:27:21;6.82;;;1.80;;
20375;SDS011;10347;51.828;6.466;2023-03-14T04:29:47;6.95;;;2.00;;
20375;SDS011;10347;51.828;6.466;2023-03-14T04:32:12;7.53;;;2.30;;
20375;SDS011;10347;51.828;6.466;2023-03-14T04:34:38;7.07;;;1.92;;
20375;SDS011;10347;51.828;6.466;2023-03-14T04:37:03;7.65;;;2.00;;
20375;SDS011;10347;51.828;6.466;2023-03-14T04:39:29;8.48;;;2.00;;
20375;SDS011;10347;51.828;6.466;2023-03-14T04:41:54;5.80;;;1.75;;
20375;SDS011;10347;51.828;6.466;2023-03-14T04:44:20;8.05;;;2.08;;
20375;SDS011;10347;51.828;6.466;2023-03-14T04:46:45;5.70;;;2.00;;
20375;SDS011;10347;51.828;6.466;2023-03-14T04:49:11;7.35;;;2.20;;
20375;SDS011;10347;51.828;6.466;2023-03-14T04:51:36;9.30;;;2.13;;
20375;SDS011;10347;51.828;6.466;2023-03-14T04:54:02;7.57;;;2.00;;
20375;SDS011;10347;51.828;6.466;2023-03-14T04:56:28;8.23;;;2.05;;
20375;SDS011;10347;51.828;6.466;2023-03-14T04:58:53;6.07;;;1.73;;
20375;SDS011;10347;51.828;6.466;2023-03-14T05:01:19;4.47;;;1.50;;
20375;SDS011;10347;51.828;6.466;2023-03-14T05:03:44;4.28;;;1.88;;
20375;SDS011;10347;51.828;6.466;2023-03-14T05:06:10;8.35;;;2.08;;
20375;SDS011;10347;51.828;6.466;2023-03-14T05:08:35;5.55;;;1.80;;
20375;SDS011;10347;51.828;6.466;2023-03-14T05:11:01;7.80;;;2.20;;
20375;SDS011;10347;51.828;6.466;2023-03-14T05:13:28;8.27;;;1.92;;
20375;SDS011;10347;51.828;6.466;2023-03-14T05:15:53;3.22;;;1.65;;
20375;SDS011;10347;51.828;6.466;2023-03-14T05:18:27;6.68;;;1.60;;
20375;SDS011;10347;51.828;6.466;2023-03-14T05:20:53;7.57;;;1.77;;
20375;SDS011;10347;51.828;6.466;2023-03-14T05:23:18;3.38;;;1.30;;
20375;SDS011;10347;51.828;6.466;2023-03-14T05:25:44;5.15;;;1.45;;
20375;SDS011;10347;51.828;6.466;2023-03-14T05:28:10;4.88;;;1.70;;
20375;SDS011;10347;51.828;6.466;2023-03-14T05:30:35;4.90;;;1.65;;
20375;SDS011;10347;51.828;6.466;2023-03-14T05:33:01;3.08;;;1.52;;
20375;SDS011;10347;51.828;6.466;2023-03-14T05:35:26;4.93;;;1.40;;
20375;SDS011;10347;51.828;6.466;2023-03-14T05:37:52;8.55;;;1.83;;
20375;SDS011;10347;51.828;6.466;2023-03-14T05:40:17;1.65;;;1.10;;
20375;SDS011;10347;51.828;6.466;2023-03-14T05:42:43;3.97;;;1.40;;
20375;SDS011;10347;51.828;6.466;2023-03-14T05:45:09;1.20;;;1.05;;
20375;SDS011;10347;51.828;6.466;2023-03-14T05:47:34;2.47;;;1.67;;
20375;SDS011;10347;51.828;6.466;2023-03-14T05:50:00;2.67;;;1.20;;
20375;SDS011;10347;51.828;6.466;2023-03-14T05:52:26;2.17;;;1.20;;
20375;SDS011;10347;51.828;6.466;2023-03-14T05:54:51;1.30;;;1.20;;
20375;SDS011;10347;51.828;6.466;2023-03-14T05:57:17;4.97;;;1.42;;
20375;SDS011;10347;51.828;6.466;2023-03-14T05:59:42;1.85;;;1.17;;
20375;SDS011;10347;51.828;6.466;2023-03-14T06:02:08;1.38;;;1.25;;
20375;SDS011;10347;51.828;6.466;2023-03-14T06:04:33;2.10;;;1.30;;
20375;SDS011;10347;51.828;6.466;2023-03-14T06:06:59;2.30;;;1.30;;
20375;SDS011;10347;51.828;6.466;2023-03-14T06:09:24;1.30;;;1.20;;
20375;SDS011;10347;51.828;6.466;2023-03-14T06:11:50;2.67;;;1.50;;
20375;SDS011;10347;51.828;6.466;2023-03-14T06:14:16;1.50;;;1.40;;
20375;SDS011;10347;51.828;6.466;2023-03-14T06:16:42;2.60;;;1.23;;
20375;SDS011;10347;51.828;6.466;2023-03-14T06:19:08;1.92;;;1.40;;
20375;SDS011;10347;51.828;6.466;2023-03-14T06:21:33;3.92;;;1.58;;
20375;SDS011;10347;51.828;6.466;2023-03-14T06:23:59;3.08;;;1.50;;
20375;SDS011;10347;51.828;6.466;2023-03-14T06:26:24;1.85;;;1.27;;
20375;SDS011;10347;51.828;6.466;2023-03-14T06:28:50;1.55;;;1.27;;
20375;SDS011;10347;51.828;6.466;2023-03-14T06:31:16;2.85;;;1.30;;
20375;SDS011;10347;51.828;6.466;2023-03-14T06:33:41;2.42;;;1.40;;
20375;SDS011;10347;51.828;6.466;2023-03-14T06:36:07;2.10;;;1.65;;
20375;SDS011;10347;51.828;6.466;2023-03-14T06:38:33;1.40;;;1.30;;
20375;SDS011;10347;51.828;6.466;2023-03-14T06:41:03;5.40;;;1.50;;
20375;SDS011;10347;51.828;6.466;2023-03-14T06:43:29;4.30;;;1.42;;
20375;SDS011;10347;51.828;6.466;2023-03-14T06:45:55;3.08;;;1.70;;
20375;SDS011;10347;51.828;6.466;2023-03-14T06:48:20;3.72;;;1.75;;
20375;SDS011;10347;51.828;6.466;2023-03-14T06:50:47;4.72;;;1.83;;
20375;SDS011;10347;51.828;6.466;2023-03-14T06:53:13;3.05;;;1.60;;
20375;SDS011;10347;51.828;6.466;2023-03-14T06:55:39;2.20;;;1.60;;
20375;SDS011;10347;51.828;6.466;2023-03-14T06:58:04;4.15;;;1.83;;
20375;SDS011;10347;51.828;6.466;2023-03-14T07:00:32;2.78;;;1.88;;
20375;SDS011;10347;51.828;6.466;2023-03-14T07:02:58;4.45;;;1.90;;
20375;SDS011;10347;51.828;6.466;2023-03-14T07:05:24;3.88;;;2.03;;
20375;SDS011;10347;51.828;6.466;2023-03-14T07:07:49;3.75;;;1.73;;
20375;SDS011;10347;51.828;6.466;2023-03-14T07:10:15;1.70;;;1.60;;
20375;SDS011;10347;51.828;6.466;2023-03-14T07:12:41;3.20;;;1.67;;
20375;SDS011;10347;51.828;6.466;2023-03-14T07:15:06;2.95;;;2.03;;
20375;SDS011;10347;51.828;6.466;2023-03-14T07:17:33;3.65;;;2.10;;
20375;SDS011;10347;51.828;6.466;2023-03-14T07:19:58;3.38;;;1.70;;
20375;SDS011;10347;51.828;6.466;2023-03-14T07:22:24;1.95;;;1.80;;
20375;SDS011;10347;51.828;6.466;2023-03-14T07:24:49;2.47;;;1.80;;
20375;SDS011;10347;51.828;6.466;2023-03-14T07:27:15;3.83;;;2.40;;
20375;SDS011;10347;51.828;6.466;2023-03-14T07:29:41;3.50;;;2.00;;
20375;SDS011;10347;51.828;6.466;2023-03-14T07:32:06;5.20;;;2.10;;
20375;SDS011;10347;51.828;6.466;2023-03-14T07:34:32;5.50;;;2.17;;
20375;SDS011;10347;51.828;6.466;2023-03-14T07:36:58;2.00;;;1.60;;
20375;SDS011;10347;51.828;6.466;2023-03-14T07:39:24;1.90;;;1.80;;
20375;SDS011;10347;51.828;6.466;2023-03-14T07:41:49;4.82;;;2.20;;
20375;SDS011;10347;51.828;6.466;2023-03-14T07:44:15;3.15;;;2.03;;
20375;SDS011;10347;51.828;6.466;2023-03-14T07:46:40;2.30;;;2.00;;
20375;SDS011;10347;51.828;6.466;2023-03-14T07:49:06;3.90;;;2.42;;
20375;SDS011;10347;51.828;6.466;2023-03-14T07:51:32;2.50;;;2.15;;
20375;SDS011;10347;51.828;6.466;2023-03-14T07:53:57;2.15;;;1.88;;
20375;SDS011;10347;51.828;6.466;2023-03-14T07:56:23;2.95;;;2.25;;
20375;SDS011;10347;51.828;6.466;2023-03-14T07:58:49;2.20;;;2.00;;
20375;SDS011;10347;51.828;6.466;2023-03-14T08:01:14;2.90;;;2.47;;
20375;SDS011;10347;51.828;6.466;2023-03-14T08:03:40;4.03;;;2.60;;
20375;SDS011;10347;51.828;6.466;2023-03-14T08:06:06;4.32;;;2.45;;
20375;SDS011;10347;51.828;6.466;2023-03-14T08:08:31;4.07;;;2.08;;
20375;SDS011;10347;51.828;6.466;2023-03-14T08:11:02;3.35;;;2.42;;
20375;SDS011;10347;51.828;6.466;2023-03-14T08:13:28;3.22;;;2.38;;
20375;SDS011;10347;51.828;6.466;2023-03-14T08:15:54;3.00;;;2.70;;
20375;SDS011;10347;51.828;6.466;2023-03-14T08:18:19;2.63;;;2.42;;
20375;SDS011;10347;51.828;6.466;2023-03-14T08:20:45;5.20;;;2.50;;
20375;SDS011;10347;51.828;6.466;2023-03-14T08:23:10;5.03;;;2.40;;
20375;SDS011;10347;51.828;6.466;2023-03-14T08:25:37;2.10;;;1.98;;
20375;SDS011;10347;51.828;6.466;2023-03-14T08:28:03;1.73;;;1.40;;
20375;SDS011;10347;51.828;6.466;2023-03-14T08:30:29;1.35;;;1.25;;
20375;SDS011;10347;51.828;6.466;2023-03-14T08:32:56;2.28;;;1.13;;
20375;SDS011;10347;51.828;6.466;2023-03-14T08:35:22;2.70;;;1.10;;
20375;SDS011;10347;51.828;6.466;2023-03-14T08:37:48;1.05;;;1.05;;
20375;SDS011;10347;51.828;6.466;2023-03-14T08:40:14;3.38;;;1.23;;
20375;SDS011;10347;51.828;6.466;2023-03-14T08:42:42;2.22;;;1.27;;
20375;SDS011;10347;51.828;6.466;2023-03-14T08:45:08;1.10;;;1.10;;
20375;SDS011;10347;51.828;6.466;2023-03-14T08:47:36;1.58;;;1.30;;
20375;SDS011;10347;51.828;6.466;2023-03-14T08:50:02;1.10;;;1.10;;
20375;SDS011;10347;51.828;6.466;2023-03-14T08:52:29;0.85;;;0.85;;
20375;SDS011;10347;51.828;6.466;2023-03-14T08:54:55;0.95;;;0.90;;
20375;SDS011;10347;51.828;6.466;2023-03-14T08:57:21;1.88;;;0.90;;
20375;SDS011;10347;51.828;6.466;2023-03-14T08:59:47;0.98;;;0.88;;
20375;SDS011;10347;51.828;6.466;2023-03-14T09:02:12;1.15;;;0.95;;
20375;SDS011;10347;51.828;6.466;2023-03-14T09:04:38;0.85;;;0.85;;
20375;SDS011;10347;51.828;6.466;2023-03-14T09:07:04;0.95;;;0.95;;
20375;SDS011;10347;51.828;6.466;2023-03-14T09:09:29;2.67;;;1.27;;
20375;SDS011;10347;51.828;6.466;2023-03-14T09:11:55;0.93;;;0.93;;
20375;SDS011;10347;51.828;6.466;2023-03-14T09:14:21;1.00;;;1.00;;
20375;SDS011;10347;51.828;6.466;2023-03-14T09:16:47;0.75;;;0.75;;
20375;SDS011;10347;51.828;6.466;2023-03-14T09:19:13;0.80;;;0.80;;
20375;SDS011;10347;51.828;6.466;2023-03-14T09:21:38;1.10;;;1.00;;
20375;SDS011;10347;51.828;6.466;2023-03-14T09:24:04;1.40;;;0.90;;
20375;SDS011;10347;51.828;6.466;2023-03-14T09:26:30;1.00;;;1.00;;
20375;SDS011;10347;51.828;6.466;2023-03-14T09:28:56;0.90;;;0.90;;
20375;SDS011;10347;51.828;6.466;2023-03-14T09:31:22;1.73;;;1.10;;
20375;SDS011;10347;51.828;6.466;2023-03-14T09:33:47;1.17;;;1.10;;
20375;SDS011;10347;51.828;6.466;2023-03-14T09:36:13;1.40;;;1.30;;
20375;SDS011;10347;51.828;6.466;2023-03-14T09:38:38;2.33;;;1.27;;
20375;SDS011;10347;51.828;6.466;2023-03-14T09:41:11;1.95;;;1.00;;
20375;SDS011;10347;51.828;6.466;2023-03-14T09:43:42;4.78;;;1.60;;
20375;SDS011;10347;51.828;6.466;2023-03-14T09:46:09;2.05;;;1.15;;
20375;SDS011;10347;51.828;6.466;2023-03-14T09:48:36;4.65;;;1.58;;
20375;SDS011;10347;51.828;6.466;2023-03-14T09:51:04;3.00;;;1.10;;
20375;SDS011;10347;51.828;6.466;2023-03-14T09:53:40;2.50;;;0.90;;
20375;SDS011;10347;51.828;6.466;2023-03-14T09:56:12;1.23;;;1.10;;
20375;SDS011;10347;51.828;6.466;2023-03-14T09:58:41;0.93;;;0.90;;
20375;SDS011;10347;51.828;6.466;2023-03-14T10:01:09;1.45;;;1.10;;
20375;SDS011;10347;51.828;6.466;2023-03-14T10:03:39;2.40;;;1.10;;
20375;SDS011;10347;51.828;6.466;2023-03-14T10:06:13;2.17;;;1.10;;
20375;SDS011;10347;51.828;6.466;2023-03-14T10:08:41;1.10;;;1.00;;
20375;SDS011;10347;51.828;6.466;2023-03-14T10:11:11;1.17;;;1.08;;
20375;SDS011;10347;51.828;6.466;2023-03-14T10:16:33;1.17;;;1.10;;
20375;SDS011;10347;51.828;6.466;2023-03-14T10:19:05;3.05;;;1.23;;
20375;SDS011;10347;51.828;6.466;2023-03-14T10:21:42;4.78;;;2.20;;
20375;SDS011;10347;51.828;6.466;2023-03-14T10:24:10;4.90;;;2.05;;
20375;SDS011;10347;51.828;6.466;2023-03-14T10:26:36;6.93;;;3.03;;
20375;SDS011;10347;51.828;6.466;2023-03-14T10:29:11;4.85;;;2.17;;
20375;SDS011;10347;51.828;6.466;2023-03-14T10:31:46;3.67;;;1.45;;
20375;SDS011;10347;51.828;6.466;2023-03-14T10:34:28;5.20;;;1.52;;
20375;SDS011;10347;51.828;6.466;2023-03-14T10:36:56;4.13;;;2.00;;
20375;SDS011;10347;51.828;6.466;2023-03-14T10:39:47;3.95;;;2.33;;
20375;SDS011;10347;51.828;6.466;2023-03-14T10:42:22;4.88;;;2.50;;
20375;SDS011;10347;51.828;6.466;2023-03-14T10:45:06;2.28;;;2.03;;
20375;SDS011;10347;51.828;6.466;2023-03-14T10:47:50;5.57;;;2.83;;
20375;SDS011;10347;51.828;6.466;2023-03-14T10:50:24;5.13;;;2.50;;
20375;SDS011;10347;51.828;6.466;2023-03-14T10:52:52;6.18;;;2.40;;
20375;SDS011;10347;51.828;6.466;2023-03-14T10:55:18;3.35;;;1.90;;
20375;SDS011;10347;51.828;6.466;2023-03-14T10:57:44;2.30;;;1.50;;
20375;SDS011;10347;51.828;6.466;2023-03-14T11:00:16;4.15;;;1.40;;
20375;SDS011;10347;51.828;6.466;2023-03-14T11:03:03;5.38;;;1.75;;
20375;SDS011;10347;51.828;6.466;2023-03-14T11:05:46;7.82;;;2.33;;
20375;SDS011;10347;51.828;6.466;2023-03-14T11:13:39;9.57;;;3.40;;
20375;SDS011;10347;51.828;6.466;2023-03-14T11:19:15;6.43;;;2.35;;
20375;SDS011;10347;51.828;6.466;2023-03-14T11:27:22;5.32;;;1.83;;
20375;SDS011;10347;51.828;6.466;2023-03-14T11:29:54;3.45;;;1.80;;
20375;SDS011;10347;51.828;6.466;2023-03-14T11:32:32;4.97;;;1.70;;
20375;SDS011;10347;51.828;6.466;2023-03-14T11:35:03;4.88;;;1.80;;
20375;SDS011;10347;51.828;6.466;2023-03-14T11:37:47;7.60;;;2.00;;
20375;SDS011;10347;51.828;6.466;2023-03-14T11:40:24;6.63;;;2.20;;
20375;SDS011;10347;51.828;6.466;2023-03-14T11:45:42;10.15;;;2.20;;
20375;SDS011;10347;51.828;6.466;2023-03-14T11:51:41;13.18;;;3.42;;
20375;SDS011;10347;51.828;6.466;2023-03-14T11:57:17;21.30;;;4.10;;
20375;SDS011;10347;51.828;6.466;2023-03-14T12:05:14;11.48;;;3.50;;
20375;SDS011;10347;51.828;6.466;2023-03-14T12:10:40;16.55;;;3.42;;
20375;SDS011;10347;51.828;6.466;2023-03-14T12:13:11;13.43;;;2.95;;
20375;SDS011;10347;51.828;6.466;2023-03-14T12:15:39;12.55;;;3.60;;
20375;SDS011;10347;51.828;6.466;2023-03-14T12:18:19;12.85;;;2.75;;
20375;SDS011;10347;51.828;6.466;2023-03-14T12:20:54;11.68;;;3.40;;
20375;SDS011;10347;51.828;6.466;2023-03-14T12:23:23;12.80;;;3.60;;
20375;SDS011;10347;51.828;6.466;2023-03-14T12:28:38;25.48;;;3.88;;
20375;SDS011;10347;51.828;6.466;2023-03-14T12:39:25;16.70;;;3.15;;
20375;SDS011;10347;51.828;6.466;2023-03-14T12:44:41;11.60;;;3.17;;
20375;SDS011;10347;51.828;6.466;2023-03-14T12:49:43;18.98;;;3.22;;
20375;SDS011;10347;51.828;6.466;2023-03-14T12:52:13;14.93;;;2.85;;
20375;SDS011;10347;51.828;6.466;2023-03-14T12:54:59;6.75;;;2.50;;
20375;SDS011;10347;51.828;6.466;2023-03-14T13:00:24;11.15;;;2.70;;
20375;SDS011;10347;51.828;6.466;2023-03-14T13:05:56;7.85;;;2.88;;
20375;SDS011;10347;51.828;6.466;2023-03-14T13:08:34;8.75;;;2.58;;
20375;SDS011;10347;51.828;6.466;2023-03-14T13:11:25;5.68;;;2.30;;
20375;SDS011;10347;51.828;6.466;2023-03-14T13:13:57;10.45;;;2.50;;
20375;SDS011;10347;51.828;6.466;2023-03-14T13:16:24;9.57;;;2.70;;
20375;SDS011;10347;51.828;6.466;2023-03-14T13:18:50;5.78;;;2.28;;
20375;SDS011;10347;51.828;6.466;2023-03-14T13:21:39;8.43;;;2.30;;
20375;SDS011;10347;51.828;6.466;2023-03-14T13:24:06;6.65;;;2.15;;
20375;SDS011;10347;51.828;6.466;2023-03-14T13:26:45;7.05;;;2.10;;
20375;SDS011;10347;51.828;6.466;2023-03-14T13:29:30;9.80;;;2.30;;
20375;SDS011;10347;51.828;6.466;2023-03-14T13:31:58;6.90;;;2.00;;
20375;SDS011;10347;51.828;6.466;2023-03-14T13:34:26;8.68;;;2.45;;
20375;SDS011;10347;51.828;6.466;2023-03-14T13:36:54;9.65;;;2.40;;
20375;SDS011;10347;51.828;6.466;2023-03-14T13:39:21;7.88;;;2.63;;
20375;SDS011;10347;51.828;6.466;2023-03-14T13:41:50;7.13;;;2.22;;
20375;SDS011;10347;51.828;6.466;2023-03-14T13:44:34;5.20;;;1.88;;
20375;SDS011;10347;51.828;6.466;2023-03-14T13:47:04;8.02;;;2.30;;
20375;SDS011;10347;51.828;6.466;2023-03-14T13:49:34;5.22;;;2.25;;
20375;SDS011;10347;51.828;6.466;2023-03-14T13:52:02;7.95;;;2.47;;
20375;SDS011;10347;51.828;6.466;2023-03-14T13:54:29;8.13;;;2.72;;
20375;SDS011;10347;51.828;6.466;2023-03-14T13:57:00;9.57;;;2.95;;
20375;SDS011;10347;51.828;6.466;2023-03-14T13:59:31;10.82;;;2.67;;
20375;SDS011;10347;51.828;6.466;2023-03-14T14:01:58;8.45;;;2.22;;
20375;SDS011;10347;51.828;6.466;2023-03-14T14:04:37;6.05;;;2.10;;
20375;SDS011;10347;51.828;6.466;2023-03-14T14:07:10;7.35;;;2.28;;
20375;SDS011;10347;51.828;6.466;2023-03-14T14:09:43;8.27;;;2.47;;
20375;SDS011;10347;51.828;6.466;2023-03-14T14:12:29;7.85;;;2.45;;
20375;SDS011;10347;51.828;6.466;2023-03-14T14:15:10;7.82;;;2.53;;
20375;SDS011;10347;51.828;6.466;2023-03-14T14:17:38;6.80;;;2.22;;
20375;SDS011;10347;51.828;6.466;2023-03-14T14:20:20;8.43;;;2.38;;
20375;SDS011;10347;51.828;6.466;2023-03-14T14:22:59;6.93;;;2.40;;
20375;SDS011;10347;51.828;6.466;2023-03-14T14:25:30;3.65;;;1.70;;
20375;SDS011;10347;51.828;6.466;2023-03-14T14:27:56;6.82;;;1.95;;
20375;SDS011;10347;51.828;6.466;2023-03-14T14:32:48;8.07;;;2.30;;
20375;SDS011;10347;51.828;6.466;2023-03-14T14:35:22;6.03;;;2.05;;
20375;SDS011;10347;51.828;6.466;2023-03-14T14:37:49;5.75;;;1.90;;
20375;SDS011;10347;51.828;6.466;2023-03-14T14:40:19;6.00;;;1.73;;
20375;SDS011;10347;51.828;6.466;2023-03-14T14:42:47;3.90;;;1.73;;
20375;SDS011;10347;51.828;6.466;2023-03-14T14:45:16;7.20;;;1.83;;
20375;SDS011;10347;51.828;6.466;2023-03-14T14:47:53;4.60;;;2.03;;
20375;SDS011;10347;51.828;6.466;2023-03-14T14:50:29;6.80;;;2.58;;
20375;SDS011;10347;51.828;6.466;2023-03-14T14:53:00;3.63;;;2.10;;
20375;SDS011;10347;51.828;6.466;2023-03-14T14:55:32;4.80;;;2.40;;
20375;SDS011;10347;51.828;6.466;2023-03-14T14:58:11;4.22;;;1.70;;
20375;SDS011;10347;51.828;6.466;2023-03-14T15:00:49;6.10;;;2.03;;
20375;SDS011;10347;51.828;6.466;2023-03-14T15:03:17;5.07;;;2.13;;
20375;SDS011;10347;51.828;6.466;2023-03-14T15:05:43;7.05;;;2.60;;
20375;SDS011;10347;51.828;6.466;2023-03-14T15:08:09;7.53;;;2.30;;
20375;SDS011;10347;51.828;6.466;2023-03-14T15:10:35;4.97;;;1.83;;
20375;SDS011;10347;51.828;6.466;2023-03-14T15:13:01;3.70;;;1.70;;
20375;SDS011;10347;51.828;6.466;2023-03-14T15:15:26;5.35;;;2.08;;
20375;SDS011;10347;51.828;6.466;2023-03-14T15:17:52;4.72;;;2.00;;
20375;SDS011;10347;51.828;6.466;2023-03-14T15:20:18;4.18;;;2.03;;
20375;SDS011;10347;51.828;6.466;2023-03-14T15:22:44;7.88;;;2.13;;
20375;SDS011;10347;51.828;6.466;2023-03-14T15:25:11;8.63;;;2.50;;
20375;SDS011;10347;51.828;6.466;2023-03-14T15:27:37;7.68;;;2.30;;
20375;SDS011;10347;51.828;6.466;2023-03-14T15:30:09;5.65;;;1.90;;
20375;SDS011;10347;51.828;6.466;2023-03-14T15:32:36;4.93;;;1.77;;
20375;SDS011;10347;51.828;6.466;2023-03-14T15:35:02;9.27;;;2.67;;
20375;SDS011;10347;51.828;6.466;2023-03-14T15:37:28;8.70;;;2.97;;
20375;SDS011;10347;51.828;6.466;2023-03-14T15:39:54;4.57;;;2.03;;
20375;SDS011;10347;51.828;6.466;2023-03-14T15:42:22;9.57;;;2.38;;
20375;SDS011;10347;51.828;6.466;2023-03-14T15:44:48;11.68;;;2.60;;
20375;SDS011;10347;51.828;6.466;2023-03-14T15:47:14;3.92;;;2.08;;
20375;SDS011;10347;51.828;6.466;2023-03-14T15:49:40;11.18;;;3.80;;
20375;SDS011;10347;51.828;6.466;2023-03-14T15:52:05;8.05;;;2.95;;
20375;SDS011;10347;51.828;6.466;2023-03-14T15:54:32;9.02;;;3.05;;
20375;SDS011;10347;51.828;6.466;2023-03-14T15:56:59;7.97;;;2.63;;
20375;SDS011;10347;51.828;6.466;2023-03-14T15:59:24;3.08;;;2.00;;